SIN weather

Singapore Changi Airport
Singapore, South East, Singapore

Public forecast

Using degrees Celsius for public forecast. Weather courtesy of forecast.io.

METAR (pilot weather report)

Retrieved 2019/04/23 09:30 UTC (17 minutes ago):

WSSS 230930Z VRB03KT 9999 FEW016 FEW018TCU SCT140 BKN270 29/24 Q1006 NOSIG

TAF (pilot weather forecast)

Retrieved 2019/04/23 06:09 UTC (4 hours ago):

TAF WSSS 230500Z 2306/2412 16005KT 9999 FEW015 SCT020 TEMPO 2306/2308 3000 TSRA FEW012CB BKN015